sensor_id;sensor_type;location;lat;lon;timestamp;temperature;humidity
33067;DHT22;19428;49.024;8.366;2022-10-31T00:10:20;11.60;99.90
33067;DHT22;19428;49.024;8.366;2022-10-31T00:15:31;11.60;99.90
33067;DHT22;19428;49.024;8.366;2022-10-31T00:18:02;11.60;99.90
33067;DHT22;19428;49.024;8.366;2022-10-31T00:20:40;11.60;99.90
33067;DHT22;19428;49.024;8.366;2022-10-31T00:23:26;11.50;99.90
33067;DHT22;19428;49.024;8.366;2022-10-31T00:28:43;11.30;99.90
33067;DHT22;19428;49.024;8.366;2022-10-31T00:31:14;11.10;99.90
33067;DHT22;19428;49.024;8.366;2022-10-31T00:33:44;11.00;99.90
33067;DHT22;19428;49.024;8.366;2022-10-31T00:36:21;11.00;99.90
33067;DHT22;19428;49.024;8.366;2022-10-31T00:38:51;11.10;99.90
33067;DHT22;19428;49.024;8.366;2022-10-31T00:41:19;11.00;99.90
33067;DHT22;19428;49.024;8.366;2022-10-31T00:43:45;10.90;99.90
33067;DHT22;19428;49.024;8.366;2022-10-31T00:46:14;10.90;99.90
33067;DHT22;19428;49.024;8.366;2022-10-31T00:48:47;11.00;99.90
33067;DHT22;19428;49.024;8.366;2022-10-31T00:51:14;11.10;99.90
33067;DHT22;19428;49.024;8.366;2022-10-31T00:53:43;11.30;99.90
33067;DHT22;19428;49.024;8.366;2022-10-31T00:56:12;11.40;99.90
33067;DHT22;19428;49.024;8.366;2022-10-31T00:58:38;11.10;99.90
33067;DHT22;19428;49.024;8.366;2022-10-31T01:01:05;11.00;99.90
33067;DHT22;19428;49.024;8.366;2022-10-31T01:07:06;11.00;99.90
33067;DHT22;19428;49.024;8.366;2022-10-31T01:20:45;11.00;99.90
33067;DHT22;19428;49.024;8.366;2022-10-31T01:27:34;10.70;99.90
33067;DHT22;19428;49.024;8.366;2022-10-31T01:40:54;10.60;99.90
33067;DHT22;19428;49.024;8.366;2022-10-31T01:54:03;10.50;99.90
33067;DHT22;19428;49.024;8.366;2022-10-31T01:56:35;10.30;99.90
33067;DHT22;19428;49.024;8.366;2022-10-31T01:59:08;10.20;99.90
33067;DHT22;19428;49.024;8.366;2022-10-31T02:04:32;10.30;99.90
33067;DHT22;19428;49.024;8.366;2022-10-31T02:07:17;10.20;99.90
33067;DHT22;19428;49.024;8.366;2022-10-31T02:09:50;10.30;99.90
33067;DHT22;19428;49.024;8.366;2022-10-31T02:12:33;10.30;99.90
33067;DHT22;19428;49.024;8.366;2022-10-31T02:15:11;10.40;99.90
33067;DHT22;19428;49.024;8.366;2022-10-31T02:17:39;10.30;99.90
33067;DHT22;19428;49.024;8.366;2022-10-31T02:41:34;10.40;99.90
33067;DHT22;19428;49.024;8.366;2022-10-31T03:41:25;10.20;99.90
33067;DHT22;19428;49.024;8.366;2022-10-31T03:48:06;10.00;99.90
33067;DHT22;19428;49.024;8.366;2022-10-31T05:56:16;9.10;99.90
33067;DHT22;19428;49.024;8.366;2022-10-31T06:09:13;9.00;99.90
33067;DHT22;19428;49.024;8.366;2022-10-31T06:24:01;9.30;99.90
33067;DHT22;19428;49.024;8.366;2022-10-31T07:37:41;11.00;99.90
33067;DHT22;19428;49.024;8.366;2022-10-31T08:53:53;13.00;99.90
33067;DHT22;19428;49.024;8.366;2022-10-31T09:01:45;13.50;99.90
33067;DHT22;19428;49.024;8.366;2022-10-31T09:04:11;13.70;99.90
33067;DHT22;19428;49.024;8.366;2022-10-31T09:06:38;13.80;99.90
33067;DHT22;19428;49.024;8.366;2022-10-31T09:09:04;13.90;99.90
33067;DHT22;19428;49.024;8.366;2022-10-31T09:11:35;13.70;99.90
33067;DHT22;19428;49.024;8.366;2022-10-31T09:14:01;13.70;99.90
33067;DHT22;19428;49.024;8.366;2022-10-31T09:16:27;13.80;99.90
33067;DHT22;19428;49.024;8.366;2022-10-31T09:18:53;14.10;99.90
33067;DHT22;19428;49.024;8.366;2022-10-31T09:21:22;14.10;99.90
33067;DHT22;19428;49.024;8.366;2022-10-31T09:23:50;14.00;99.90
33067;DHT22;19428;49.024;8.366;2022-10-31T09:26:15;14.00;99.90
33067;DHT22;19428;49.024;8.366;2022-10-31T09:28:41;13.90;99.90
33067;DHT22;19428;49.024;8.366;2022-10-31T09:31:07;14.10;99.90
33067;DHT22;19428;49.024;8.366;2022-10-31T09:33:38;14.20;99.90
33067;DHT22;19428;49.024;8.366;2022-10-31T09:36:07;14.20;99.90
33067;DHT22;19428;49.024;8.366;2022-10-31T09:38:34;14.20;99.90
33067;DHT22;19428;49.024;8.366;2022-10-31T09:44:57;14.40;99.90
33067;DHT22;19428;49.024;8.366;2022-10-31T09:50:54;14.30;99.90
33067;DHT22;19428;49.024;8.366;2022-10-31T09:56:17;14.40;99.90
33067;DHT22;19428;49.024;8.366;2022-10-31T09:58:50;14.50;99.90
33067;DHT22;19428;49.024;8.366;2022-10-31T10:01:48;14.60;99.90
33067;DHT22;19428;49.024;8.366;2022-10-31T10:06:59;14.70;99.90
33067;DHT22;19428;49.024;8.366;2022-10-31T10:09:28;14.70;99.90
33067;DHT22;19428;49.024;8.366;2022-10-31T10:15:27;14.90;99.90
33067;DHT22;19428;49.024;8.366;2022-10-31T10:17:59;15.00;99.90
33067;DHT22;19428;49.024;8.366;2022-10-31T10:20:50;15.20;99.90
33067;DHT22;19428;49.024;8.366;2022-10-31T10:25:52;15.30;99.90
33067;DHT22;19428;49.024;8.366;2022-10-31T10:28:27;15.40;99.90
33067;DHT22;19428;49.024;8.366;2022-10-31T10:30:57;15.30;99.90
33067;DHT22;19428;49.024;8.366;2022-10-31T10:33:38;15.20;99.90
33067;DHT22;19428;49.024;8.366;2022-10-31T10:36:11;15.40;99.90
33067;DHT22;19428;49.024;8.366;2022-10-31T10:39:02;15.40;99.90
33067;DHT22;19428;49.024;8.366;2022-10-31T10:41:33;15.60;99.90
33067;DHT22;19428;49.024;8.366;2022-10-31T10:43:58;15.60;99.90
33067;DHT22;19428;49.024;8.366;2022-10-31T10:46:27;15.60;99.90
33067;DHT22;19428;49.024;8.366;2022-10-31T10:49:47;15.70;99.90
33067;DHT22;19428;49.024;8.366;2022-10-31T10:55:43;15.70;99.90
33067;DHT22;19428;49.024;8.366;2022-10-31T10:58:13;15.90;99.90
33067;DHT22;19428;49.024;8.366;2022-10-31T11:00:44;15.70;99.90
33067;DHT22;19428;49.024;8.366;2022-10-31T11:03:16;16.00;99.90
33067;DHT22;19428;49.024;8.366;2022-10-31T11:05:56;16.10;99.90
33067;DHT22;19428;49.024;8.366;2022-10-31T11:08:32;16.10;99.90
33067;DHT22;19428;49.024;8.366;2022-10-31T11:11:05;16.00;99.90
33067;DHT22;19428;49.024;8.366;2022-10-31T11:13:34;16.10;99.90
33067;DHT22;19428;49.024;8.366;2022-10-31T11:16:03;16.20;99.90
33067;DHT22;19428;49.024;8.366;2022-10-31T11:18:36;16.10;99.90
33067;DHT22;19428;49.024;8.366;2022-10-31T11:21:04;16.10;99.90
33067;DHT22;19428;49.024;8.366;2022-10-31T11:23:32;16.50;99.90
33067;DHT22;19428;49.024;8.366;2022-10-31T11:26:05;16.50;99.90
33067;DHT22;19428;49.024;8.366;2022-10-31T11:28:33;16.50;99.90
33067;DHT22;19428;49.024;8.366;2022-10-31T11:31:07;16.30;99.90
33067;DHT22;19428;49.024;8.366;2022-10-31T11:33:36;16.60;99.90
33067;DHT22;19428;49.024;8.366;2022-10-31T11:36:26;16.70;99.90
33067;DHT22;19428;49.024;8.366;2022-10-31T11:38:54;16.80;99.90
33067;DHT22;19428;49.024;8.366;2022-10-31T11:41:27;16.80;99.90
33067;DHT22;19428;49.024;8.366;2022-10-31T11:44:16;16.80;99.90
33067;DHT22;19428;49.024;8.366;2022-10-31T11:46:55;16.70;99.90
33067;DHT22;19428;49.024;8.366;2022-10-31T11:51:57;17.00;99.90
33067;DHT22;19428;49.024;8.366;2022-10-31T11:54:49;17.10;99.90
33067;DHT22;19428;49.024;8.366;2022-10-31T11:57:29;17.10;99.90
33067;DHT22;19428;49.024;8.366;2022-10-31T11:59:59;17.00;99.90
33067;DHT22;19428;49.024;8.366;2022-10-31T12:02:26;17.20;99.90
33067;DHT22;19428;49.024;8.366;2022-10-31T12:05:17;17.10;99.90
33067;DHT22;19428;49.024;8.366;2022-10-31T12:07:46;16.90;99.90
33067;DHT22;19428;49.024;8.366;2022-10-31T12:10:13;16.80;99.90
33067;DHT22;19428;49.024;8.366;2022-10-31T12:12:46;16.90;99.90
33067;DHT22;19428;49.024;8.366;2022-10-31T12:15:25;17.00;99.90
33067;DHT22;19428;49.024;8.366;2022-10-31T12:23:48;16.80;99.90
33067;DHT22;19428;49.024;8.366;2022-10-31T12:37:35;17.30;99.90
33067;DHT22;19428;49.024;8.366;2022-10-31T12:48:43;17.00;99.90
33067;DHT22;19428;49.024;8.366;2022-10-31T12:57:35;17.00;99.90
33067;DHT22;19428;49.024;8.366;2022-10-31T13:00:24;17.40;99.90
33067;DHT22;19428;49.024;8.366;2022-10-31T13:03:19;18.00;99.90
33067;DHT22;19428;49.024;8.366;2022-10-31T13:06:09;18.50;99.90
33067;DHT22;19428;49.024;8.366;2022-10-31T13:12:22;18.80;99.90
33067;DHT22;19428;49.024;8.366;2022-10-31T13:17:47;18.70;99.90
33067;DHT22;19428;49.024;8.366;2022-10-31T13:20:38;19.20;99.90
33067;DHT22;19428;49.024;8.366;2022-10-31T13:23:49;18.90;99.90
33067;DHT22;19428;49.024;8.366;2022-10-31T13:26:38;18.80;99.90
33067;DHT22;19428;49.024;8.366;2022-10-31T13:32:27;18.70;99.90
33067;DHT22;19428;49.024;8.366;2022-10-31T13:34:56;18.80;99.90
33067;DHT22;19428;49.024;8.366;2022-10-31T13:37:53;18.60;99.90
33067;DHT22;19428;49.024;8.366;2022-10-31T13:43:36;18.50;99.90
33067;DHT22;19428;49.024;8.366;2022-10-31T13:46:35;18.50;99.90
33067;DHT22;19428;49.024;8.366;2022-10-31T13:52:24;19.00;99.90
33067;DHT22;19428;49.024;8.366;2022-10-31T13:54:55;18.70;99.90
33067;DHT22;19428;49.024;8.366;2022-10-31T13:57:49;18.30;99.90
33067;DHT22;19428;49.024;8.366;2022-10-31T14:00:31;18.30;99.90
33067;DHT22;19428;49.024;8.366;2022-10-31T14:03:02;18.20;99.90
33067;DHT22;19428;49.024;8.366;2022-10-31T14:05:35;18.00;99.90
33067;DHT22;19428;49.024;8.366;2022-10-31T14:08:15;17.70;99.90
33067;DHT22;19428;49.024;8.366;2022-10-31T14:10:49;17.60;99.90
33067;DHT22;19428;49.024;8.366;2022-10-31T14:16:03;17.70;99.90
33067;DHT22;19428;49.024;8.366;2022-10-31T14:18:36;17.70;99.90
33067;DHT22;19428;49.024;8.366;2022-10-31T14:23:41;17.40;99.90
33067;DHT22;19428;49.024;8.366;2022-10-31T14:26:30;17.40;99.90
33067;DHT22;19428;49.024;8.366;2022-10-31T14:29:02;17.40;99.90
33067;DHT22;19428;49.024;8.366;2022-10-31T14:31:51;17.40;99.90
33067;DHT22;19428;49.024;8.366;2022-10-31T14:34:24;17.30;99.90
33067;DHT22;19428;49.024;8.366;2022-10-31T14:45:31;17.50;99.90
33067;DHT22;19428;49.024;8.366;2022-10-31T14:48:24;17.40;99.90
33067;DHT22;19428;49.024;8.366;2022-10-31T14:50:58;17.40;99.90
33067;DHT22;19428;49.024;8.366;2022-10-31T15:04:11;17.10;99.90
33067;DHT22;19428;49.024;8.366;2022-10-31T15:06:43;17.00;99.90
33067;DHT22;19428;49.024;8.366;2022-10-31T15:11:50;16.90;99.90
33067;DHT22;19428;49.024;8.366;2022-10-31T15:14:27;16.80;99.90
33067;DHT22;19428;49.024;8.366;2022-10-31T15:16:55;16.80;99.90
33067;DHT22;19428;49.024;8.366;2022-10-31T15:19:26;16.80;99.90
33067;DHT22;19428;49.024;8.366;2022-10-31T15:21:56;16.70;99.90
33067;DHT22;19428;49.024;8.366;2022-10-31T15:24:36;16.60;99.90
33067;DHT22;19428;49.024;8.366;2022-10-31T15:27:04;16.60;99.90
33067;DHT22;19428;49.024;8.366;2022-10-31T15:29:52;16.50;99.90
33067;DHT22;19428;49.024;8.366;2022-10-31T15:32:28;16.50;99.90
33067;DHT22;19428;49.024;8.366;2022-10-31T15:35:22;16.50;99.90
33067;DHT22;19428;49.024;8.366;2022-10-31T15:37:48;16.40;99.90
33067;DHT22;19428;49.024;8.366;2022-10-31T15:40:19;16.40;99.90
33067;DHT22;19428;49.024;8.366;2022-10-31T15:42:59;16.30;99.90
33067;DHT22;19428;49.024;8.366;2022-10-31T15:45:29;16.30;99.90
33067;DHT22;19428;49.024;8.366;2022-10-31T15:48:17;16.30;99.90
33067;DHT22;19428;49.024;8.366;2022-10-31T15:50:52;16.30;99.90
33067;DHT22;19428;49.024;8.366;2022-10-31T15:53:37;16.20;99.90
33067;DHT22;19428;49.024;8.366;2022-10-31T15:56:09;16.20;99.90
33067;DHT22;19428;49.024;8.366;2022-10-31T15:58:43;16.10;99.90
33067;DHT22;19428;49.024;8.366;2022-10-31T16:01:28;16.00;99.90
33067;DHT22;19428;49.024;8.366;2022-10-31T16:04:22;16.00;99.90
33067;DHT22;19428;49.024;8.366;2022-10-31T16:07:13;16.10;99.90
33067;DHT22;19428;49.024;8.366;2022-10-31T16:10:21;16.10;99.90
33067;DHT22;19428;49.024;8.366;2022-10-31T16:13:00;15.90;99.90
33067;DHT22;19428;49.024;8.366;2022-10-31T16:16:09;16.00;99.90
33067;DHT22;19428;49.024;8.366;2022-10-31T16:18:53;16.00;99.90
33067;DHT22;19428;49.024;8.366;2022-10-31T16:27:52;16.00;99.90
33067;DHT22;19428;49.024;8.366;2022-10-31T16:30:41;15.60;99.90
33067;DHT22;19428;49.024;8.366;2022-10-31T16:36:53;15.80;99.90
33067;DHT22;19428;49.024;8.366;2022-10-31T16:42:18;15.60;99.90
33067;DHT22;19428;49.024;8.366;2022-10-31T19:46:46;13.90;99.90
33067;DHT22;19428;49.024;8.366;2022-10-31T19:55:15;13.80;99.90
33067;DHT22;19428;49.024;8.366;2022-10-31T19:57:46;13.70;99.90
33067;DHT22;19428;49.024;8.366;2022-10-31T20:00:38;13.60;99.90
33067;DHT22;19428;49.024;8.366;2022-10-31T20:03:10;13.70;99.90
33067;DHT22;19428;49.024;8.366;2022-10-31T20:05:49;13.70;99.90
33067;DHT22;19428;49.024;8.366;2022-10-31T20:45:24;13.50;99.90
33067;DHT22;19428;49.024;8.366;2022-10-31T20:51:01;13.50;99.90
33067;DHT22;19428;49.024;8.366;2022-10-31T20:56:43;13.50;99.90
33067;DHT22;19428;49.024;8.366;2022-10-31T20:59:22;13.20;99.90
33067;DHT22;19428;49.024;8.366;2022-10-31T21:02:19;13.20;99.90
33067;DHT22;19428;49.024;8.366;2022-10-31T21:04:58;13.00;99.90
33067;DHT22;19428;49.024;8.366;2022-10-31T21:07:52;12.90;99.90
33067;DHT22;19428;49.024;8.366;2022-10-31T21:10:34;12.70;99.90
33067;DHT22;19428;49.024;8.366;2022-10-31T21:13:13;12.60;99.90
33067;DHT22;19428;49.024;8.366;2022-10-31T21:16:14;12.80;99.90
33067;DHT22;19428;49.024;8.366;2022-10-31T21:21:39;12.70;99.90
33067;DHT22;19428;49.024;8.366;2022-10-31T21:27:13;12.50;99.90
33067;DHT22;19428;49.024;8.366;2022-10-31T21:30:00;12.40;99.90
33067;DHT22;19428;49.024;8.366;2022-10-31T21:32:38;12.40;99.90
33067;DHT22;19428;49.024;8.366;2022-10-31T21:35:12;12.20;99.90
33067;DHT22;19428;49.024;8.366;2022-10-31T21:37:40;12.40;99.90
33067;DHT22;19428;49.024;8.366;2022-10-31T21:40:11;12.20;99.90
33067;DHT22;19428;49.024;8.366;2022-10-31T21:42:42;12.30;99.90
33067;DHT22;19428;49.024;8.366;2022-10-31T21:45:17;12.10;99.90
33067;DHT22;19428;49.024;8.366;2022-10-31T21:47:47;12.00;99.90
33067;DHT22;19428;49.024;8.366;2022-10-31T21:50:15;12.30;99.90
33067;DHT22;19428;49.024;8.366;2022-10-31T21:52:43;12.40;99.90
33067;DHT22;19428;49.024;8.366;2022-10-31T21:55:15;12.50;99.90
33067;DHT22;19428;49.024;8.366;2022-10-31T21:57:43;12.50;99.90
33067;DHT22;19428;49.024;8.366;2022-10-31T22:00:19;12.50;99.90
33067;DHT22;19428;49.024;8.366;2022-10-31T22:02:49;12.50;99.90
33067;DHT22;19428;49.024;8.366;2022-10-31T22:05:20;12.50;99.90
33067;DHT22;19428;49.024;8.366;2022-10-31T22:08:14;12.50;99.90
33067;DHT22;19428;49.024;8.366;2022-10-31T22:11:35;12.40;99.90
33067;DHT22;19428;49.024;8.366;2022-10-31T22:17:48;12.50;99.90
33067;DHT22;19428;49.024;8.366;2022-10-31T22:20:17;12.50;99.90
33067;DHT22;19428;49.024;8.366;2022-10-31T22:22:51;12.60;99.90
33067;DHT22;19428;49.024;8.366;2022-10-31T22:28:29;12.60;99.90
33067;DHT22;19428;49.024;8.366;2022-10-31T22:30:58;12.40;99.90
33067;DHT22;19428;49.024;8.366;2022-10-31T22:33:27;12.40;99.90
33067;DHT22;19428;49.024;8.366;2022-10-31T22:35:54;12.40;99.90
33067;DHT22;19428;49.024;8.366;2022-10-31T22:38:22;12.40;99.90
33067;DHT22;19428;49.024;8.366;2022-10-31T22:41:00;12.50;99.90
33067;DHT22;19428;49.024;8.366;2022-10-31T22:43:28;12.40;99.90
33067;DHT22;19428;49.024;8.366;2022-10-31T22:45:59;12.50;99.90
33067;DHT22;19428;49.024;8.366;2022-10-31T22:48:41;12.60;99.90
33067;DHT22;19428;49.024;8.366;2022-10-31T22:51:17;12.60;99.90
33067;DHT22;19428;49.024;8.366;2022-10-31T22:53:46;12.70;99.90
33067;DHT22;19428;49.024;8.366;2022-10-31T22:56:17;12.60;99.90
33067;DHT22;19428;49.024;8.366;2022-10-31T22:58:43;12.60;99.90
33067;DHT22;19428;49.024;8.366;2022-10-31T23:01:18;12.70;99.90
33067;DHT22;19428;49.024;8.366;2022-10-31T23:03:46;13.00;99.90
33067;DHT22;19428;49.024;8.366;2022-10-31T23:06:22;12.90;99.90
33067;DHT22;19428;49.024;8.366;2022-10-31T23:08:50;12.70;99.90
33067;DHT22;19428;49.024;8.366;2022-10-31T23:17:38;12.60;99.90
33067;DHT22;19428;49.024;8.366;2022-10-31T23:20:24;12.70;99.90
33067;DHT22;19428;49.024;8.366;2022-10-31T23:23:04;12.70;99.90
33067;DHT22;19428;49.024;8.366;2022-10-31T23:25:45;12.90;99.90
33067;DHT22;19428;49.024;8.366;2022-10-31T23:28:44;12.90;99.90
33067;DHT22;19428;49.024;8.366;2022-10-31T23:31:42;12.90;99.90
33067;DHT22;19428;49.024;8.366;2022-10-31T23:34:19;12.90;99.90
33067;DHT22;19428;49.024;8.366;2022-10-31T23:40:09;12.60;99.90
33067;DHT22;19428;49.024;8.366;2022-10-31T23:42:53;12.80;99.90
33067;DHT22;19428;49.024;8.366;2022-10-31T23:45:38;12.60;99.90
33067;DHT22;19428;49.024;8.366;2022-10-31T23:48:30;12.50;99.90
33067;DHT22;19428;49.024;8.366;2022-10-31T23:51:01;12.60;99.90
33067;DHT22;19428;49.024;8.366;2022-10-31T23:53:45;12.60;99.90
33067;DHT22;19428;49.024;8.366;2022-10-31T23:59:26;12.80;99.90
